KFYM/FYM METAR and TAF weather

Enter ICAO airport designator
Station Type Date Time Source
KFYM METAR 2019/05/26 00:55 UTC NOAA

KFYM 260055Z AUTO 00000KT 10SM CLR 28/20 A3012 RMK A01


Station Type Date Time Source
KFYM Decoded METAR 2019/05/26 00:55 UTC NOAA

Station name not available
May 25, 2019 - 08:55 PM EDT / 2019.05.26 0055 UTC
Wind: Calm:0
Visibility: 10 mile(s):0
Sky conditions: clear
Temperature: 82 F (28 C)
Dew Point: 68 F (20 C)
Relative Humidity: 61%
Pressure (altimeter): 30.12 in. Hg (1019 hPa)
ob: KFYM 260055Z AUTO 00000KT 10SM CLR 28/20 A3012 RMK A01
cycle: 1

Station Type Date Time Source
KFYM TAF 2009/08/31 19:45 UTC NOAA

METAR KFYM 311945Z AUTO 01006KT 10SM CLR 26/11 A3009
RMK AO1 T02550111 $

Example: see airport list